Brant — 5BBK2 — position and weather

sailwx.info

Track history (hours):
 
Tides and Currents Weather Stations Pressure Air Temp Water Temp Dewpoint Dewpoint Depression Visibility Wind Speed Wind Dir Waves Ship Positions

Brant

Last reported at 2014-Dec-09 20:25 UTC. Time now 2014-Dec-18 04:12 UTC.
Position N 46°32' W 072°11'.
Warning: this ship's position is 8 days out of date.

Length 185 m; draft 8.2 m.

Type: Cargo ship. MMSI: 212372000.

Date/timePositionNaut miles runAvg speedWind from/ knotsBaromVisibWave heightAir tempDewpointWater temp
2014-Dec-09 20:25N 46°32' W 072°11'1112.4
2014-Dec-09 19:33N 46°25' W 072°23'1111.5
2014-Dec-09 18:33N 46°17' W 072°35'1212.0
2014-Dec-09 17:33N 46°12' W 072°51'52 3.0
2014-Dec-09 00:13N 45°27' W 073°30'4 5.7
2014-Dec-08 23:33N 45°24' W 073°34'6 2.8
2014-Dec-08 21:33N 45°25' W 073°42'1110.8
2014-Dec-08 20:33N 45°19' W 073°55'1 1.2
2014-Dec-08 19:33N 45°18' W 073°56'1 1.1
2014-Dec-08 18:33N 45°17' W 073°56'118 6.5
2014-Dec-08 00:29N 44°12' W 076°14'9 9.5
2014-Dec-07 23:32N 44°06' W 076°24'  
2014-Dec-05 02:22N 45°42' W 084°10'810.5
2014-Dec-05 01:34N 45°41' W 084°22'1111.3
2014-Dec-05 00:34N 45°46' W 084°36'1111.3
2014-Dec-04 23:33N 45°50' W 084°52'1212.1
2014-Dec-04 22:34N 45°52' W 085°09'1312.5
2014-Dec-04 21:34N 45°53' W 085°27'1212.1
2014-Dec-04 20:34N 45°51' W 085°44'1312.9
2014-Dec-04 19:32N 45°44' W 086°00'  
Track history (hours):
 
Tides and Currents Weather Stations Pressure Air Temp Water Temp Dewpoint Dewpoint Depression Visibility Wind Speed Wind Dir Waves Ship Positions

Brant

Last reported at 2014-Dec-09 20:25 UTC. Time now 2014-Dec-18 04:12 UTC.
Position N 46°32' W 072°11'.
Warning: this ship's position is 8 days out of date.

Length 185 m; draft 8.2 m.

Type: Cargo ship. MMSI: 212372000.

Date/timePositionNaut miles runAvg speedWind from/ knotsBaromVisibWave heightAir tempDewpointWater temp
2014-Dec-09 20:25N 46°32' W 072°11'1112.4
2014-Dec-09 19:33N 46°25' W 072°23'1111.5
2014-Dec-09 18:33N 46°17' W 072°35'1212.0
2014-Dec-09 17:33N 46°12' W 072°51'52 3.0
2014-Dec-09 00:13N 45°27' W 073°30'4 5.7
2014-Dec-08 23:33N 45°24' W 073°34'6 2.8
2014-Dec-08 21:33N 45°25' W 073°42'1110.8
2014-Dec-08 20:33N 45°19' W 073°55'1 1.2
2014-Dec-08 19:33N 45°18' W 073°56'1 1.1
2014-Dec-08 18:33N 45°17' W 073°56'118 6.5
2014-Dec-08 00:29N 44°12' W 076°14'9 9.5
2014-Dec-07 23:32N 44°06' W 076°24'  
2014-Dec-05 02:22N 45°42' W 084°10'810.5
2014-Dec-05 01:34N 45°41' W 084°22'1111.3
2014-Dec-05 00:34N 45°46' W 084°36'1111.3
2014-Dec-04 23:33N 45°50' W 084°52'1212.1
2014-Dec-04 22:34N 45°52' W 085°09'1312.5
2014-Dec-04 21:34N 45°53' W 085°27'1212.1
2014-Dec-04 20:34N 45°51' W 085°44'1312.9
2014-Dec-04 19:32N 45°44' W 086°00'  

Dump ship's entire track history